Time;durP1;ratioP1;P1;durP2;ratioP2;P2;SDS_P1;SDS_P2;PMS_P1;PMS_P2;Temp;Humidity;BMP_temperature;BMP_pressure;BME280_temperature;BME280_humidity;BME280_pressure;Samples;Min_cycle;Max_cycle;Signal;HPM_P1;HPM_P2
2022/12/11 00:00:37;;;;;;;52.03;34.03;;;-1.30;99.90;;;;;;4996487;28;20480;-78
2022/12/11 00:03:05;;;;;;;51.57;34.20;;;-1.30;99.90;;;;;;4996314;28;20465;-76
2022/12/11 00:05:41;;;;;;;50.67;34.73;;;-1.30;99.90;;;;;;4996670;28;20453;-78
2022/12/11 00:08:09;;;;;;;50.40;34.67;;;-1.40;99.90;;;;;;5009767;28;20492;-76
2022/12/11 00:10:38;;;;;;;54.40;35.57;;;-1.40;99.90;;;;;;5016284;28;20454;-78
2022/12/11 00:13:06;;;;;;;50.50;33.27;;;-1.40;99.90;;;;;;5015995;28;20911;-78
2022/12/11 00:15:38;;;;;;;51.13;34.47;;;-1.40;99.90;;;;;;5007143;28;20574;-78
2022/12/11 00:18:06;;;;;;;53.37;34.30;;;-1.40;99.90;;;;;;4996765;28;20434;-77
2022/12/11 00:20:34;;;;;;;49.03;33.20;;;-1.30;99.90;;;;;;5005146;28;20450;-76
2022/12/11 00:23:05;;;;;;;48.73;32.50;;;-1.30;99.90;;;;;;5005126;28;20445;-75
2022/12/11 00:25:33;;;;;;;47.80;32.30;;;-1.30;99.90;;;;;;5008749;28;20506;-77
2022/12/11 00:28:01;;;;;;;49.37;32.87;;;-1.30;99.90;;;;;;5009177;28;20520;-77
2022/12/11 00:30:32;;;;;;;45.23;31.23;;;-1.30;99.90;;;;;;5010347;28;20452;-75
2022/12/11 00:33:02;;;;;;;48.07;32.10;;;-1.20;99.90;;;;;;5009400;28;20516;-76
2022/12/11 00:35:30;;;;;;;44.37;30.20;;;-1.30;99.90;;;;;;5010312;28;20528;-75
2022/12/11 00:37:58;;;;;;;47.20;30.73;;;-1.30;99.90;;;;;;5010693;28;20476;-74
2022/12/11 00:40:27;;;;;;;44.50;30.30;;;-1.30;99.90;;;;;;5010951;28;20433;-74
2022/12/11 00:42:55;;;;;;;41.87;29.13;;;-1.20;99.90;;;;;;5027155;28;20469;-77
2022/12/11 00:45:23;;;;;;;42.73;30.27;;;-1.20;99.90;;;;;;5030791;28;20472;-76
2022/12/11 00:47:51;;;;;;;42.37;29.13;;;-1.30;99.90;;;;;;5031192;28;20455;-76
2022/12/11 00:50:21;;;;;;;39.30;28.63;;;-1.40;99.90;;;;;;5039284;28;20475;-77
2022/12/11 00:52:50;;;;;;;43.00;29.43;;;-1.30;99.90;;;;;;5011367;28;20438;-74
2022/12/11 00:55:18;;;;;;;41.23;29.47;;;-1.40;99.90;;;;;;5011854;28;20456;-75
2022/12/11 00:57:47;;;;;;;41.07;28.37;;;-1.40;99.90;;;;;;5011648;28;20457;-76
2022/12/11 01:00:16;;;;;;;43.10;29.40;;;-1.30;99.90;;;;;;5028993;28;20527;-75
2022/12/11 01:02:44;;;;;;;42.83;28.83;;;-1.40;99.90;;;;;;5031460;28;20494;-75
2022/12/11 01:05:15;;;;;;;44.10;31.13;;;-1.40;99.90;;;;;;5033614;28;20444;-76
2022/12/11 01:07:45;;;;;;;41.40;29.10;;;-1.30;99.90;;;;;;5026382;28;20477;-76
2022/12/11 01:10:26;;;;;;;47.73;30.67;;;-1.30;99.90;;;;;;5015206;28;20515;-77
2022/12/11 01:12:56;;;;;;;43.37;30.13;;;-1.30;99.90;;;;;;5014879;28;20899;-75
2022/12/11 01:15:26;;;;;;;44.93;29.90;;;-1.20;99.90;;;;;;5020342;28;20488;-77
2022/12/11 01:17:55;;;;;;;42.47;29.40;;;-1.20;99.90;;;;;;5032738;28;20539;-78
2022/12/11 01:20:28;;;;;;;42.43;30.43;;;-1.40;99.90;;;;;;5031716;28;20475;-76
2022/12/11 01:22:59;;;;;;;41.80;28.43;;;-1.40;99.90;;;;;;5030509;28;20464;-75
2022/12/11 01:25:28;;;;;;;42.40;29.27;;;-1.40;99.90;;;;;;5032302;28;20485;-75
2022/12/11 01:27:57;;;;;;;41.43;28.60;;;-1.30;99.90;;;;;;5031998;28;20452;-77
2022/12/11 01:30:25;;;;;;;40.77;28.47;;;-1.40;99.90;;;;;;5030524;28;20543;-78
2022/12/11 01:32:54;;;;;;;42.40;28.47;;;-1.30;99.90;;;;;;5012907;28;20451;-74
2022/12/11 01:35:22;;;;;;;42.13;29.17;;;-1.30;99.90;;;;;;5013147;28;20454;-77
2022/12/11 01:37:50;;;;;;;39.00;27.60;;;-1.30;99.90;;;;;;5012512;28;20466;-75
2022/12/11 01:40:20;;;;;;;39.10;27.87;;;-1.30;99.90;;;;;;5017678;28;20926;-76
2022/12/11 01:42:50;;;;;;;39.60;27.53;;;-1.30;99.90;;;;;;5011336;28;20454;-76
2022/12/11 01:45:43;;;;;;;39.13;27.87;;;-1.30;99.90;;;;;;5011264;28;20436;-73
2022/12/11 01:48:15;;;;;;;38.13;27.80;;;-1.30;99.90;;;;;;5010145;28;20453;-75
2022/12/11 01:50:47;;;;;;;39.13;26.97;;;-1.30;99.90;;;;;;5011852;28;20508;-75
2022/12/11 01:53:23;;;;;;;35.73;26.13;;;-1.30;99.90;;;;;;5011634;28;20475;-77
2022/12/11 01:55:57;;;;;;;35.87;25.90;;;-1.40;99.90;;;;;;5012689;28;20434;-74
2022/12/11 01:58:29;;;;;;;38.53;26.63;;;-1.30;99.90;;;;;;5012309;28;20465;-77
2022/12/11 02:00:58;;;;;;;33.50;25.10;;;-1.40;99.90;;;;;;5015771;28;20529;-77
2022/12/11 02:03:28;;;;;;;32.83;24.03;;;-1.40;99.90;;;;;;5018865;28;20480;-75
2022/12/11 02:05:59;;;;;;;35.07;25.57;;;-1.50;99.90;;;;;;5018540;28;20464;-76
2022/12/11 02:08:27;;;;;;;33.70;24.80;;;-1.50;99.90;;;;;;5015321;28;20469;-75
2022/12/11 02:11:05;;;;;;;35.90;24.93;;;-1.50;99.90;;;;;;5012691;28;20583;-74
2022/12/11 02:13:44;;;;;;;34.37;23.83;;;-1.40;99.90;;;;;;5012236;28;20512;-75
2022/12/11 02:16:19;;;;;;;34.70;24.07;;;-1.40;99.90;;;;;;5026064;28;20642;-74
2022/12/11 02:18:55;;;;;;;33.20;23.67;;;-1.40;99.90;;;;;;5016101;28;20432;-76
2022/12/11 02:21:27;;;;;;;32.10;23.10;;;-1.50;99.90;;;;;;5015985;28;20429;-75
2022/12/11 02:24:07;;;;;;;30.27;22.87;;;-1.50;99.90;;;;;;5021684;28;20483;-74
2022/12/11 02:27:01;;;;;;;33.33;24.00;;;-1.60;99.90;;;;;;5035200;28;20496;-76
2022/12/11 02:29:36;;;;;;;32.97;23.67;;;-1.60;99.90;;;;;;5016702;28;20543;-76
2022/12/11 02:32:09;;;;;;;32.23;23.27;;;-1.50;99.90;;;;;;5032310;28;20450;-76
2022/12/11 02:34:42;;;;;;;34.47;23.93;;;-1.50;99.90;;;;;;5031763;28;20492;-73
2022/12/11 02:37:16;;;;;;;32.43;24.00;;;-1.60;99.90;;;;;;5032689;28;20461;-75
2022/12/11 02:39:46;;;;;;;32.63;23.17;;;-1.60;99.90;;;;;;5032865;28;20463;-75
2022/12/11 02:42:16;;;;;;;33.37;23.67;;;-1.60;99.90;;;;;;5017199;28;20484;-74
2022/12/11 02:44:48;;;;;;;31.43;22.93;;;-1.60;99.90;;;;;;5013484;28;20453;-76
2022/12/11 02:47:19;;;;;;;31.33;23.23;;;-1.60;99.90;;;;;;5011302;28;20467;-74
2022/12/11 02:49:50;;;;;;;30.43;22.37;;;-1.60;99.90;;;;;;5008956;28;20499;-76
2022/12/11 02:52:21;;;;;;;30.77;21.90;;;-1.50;99.90;;;;;;5006744;28;20471;-77
2022/12/11 02:54:50;;;;;;;32.63;23.43;;;-1.50;99.90;;;;;;5006798;28;20566;-73
2022/12/11 02:57:25;;;;;;;30.70;22.63;;;-1.50;99.90;;;;;;5012517;28;20456;-76
2022/12/11 02:59:55;;;;;;;28.87;22.00;;;-1.50;99.90;;;;;;5023948;28;20554;-74
2022/12/11 03:02:24;;;;;;;31.00;22.77;;;-1.50;99.90;;;;;;5030129;28;20566;-75
2022/12/11 03:04:56;;;;;;;32.07;22.87;;;-1.50;99.90;;;;;;5010653;28;20532;-75
2022/12/11 03:07:27;;;;;;;29.10;21.20;;;-1.50;99.90;;;;;;5008370;28;20507;-74
2022/12/11 03:09:55;;;;;;;29.67;21.97;;;-1.50;99.90;;;;;;5008270;28;20473;-74
2022/12/11 03:12:28;;;;;;;29.70;22.10;;;-1.40;99.90;;;;;;5002857;28;20467;-74
2022/12/11 03:15:01;;;;;;;29.83;22.03;;;-1.40;99.90;;;;;;5001922;28;20471;-77
2022/12/11 03:17:36;;;;;;;25.40;19.40;;;-1.40;99.90;;;;;;5018288;28;20463;-74
2022/12/11 03:20:12;;;;;;;22.27;17.47;;;-1.50;99.90;;;;;;5019564;28;20536;-74
2022/12/11 03:22:47;;;;;;;20.70;15.37;;;-1.60;99.90;;;;;;5018215;28;20425;-75
2022/12/11 03:25:20;;;;;;;17.83;12.73;;;-1.60;99.90;;;;;;5011693;28;20476;-77
2022/12/11 03:27:55;;;;;;;16.97;12.93;;;-1.70;99.90;;;;;;4999425;28;20861;-76
2022/12/11 03:30:25;;;;;;;15.30;11.10;;;-1.70;99.90;;;;;;4998611;28;20479;-76
2022/12/11 03:32:56;;;;;;;17.73;12.47;;;-1.80;99.90;;;;;;4998089;28;20453;-76
2022/12/11 03:35:30;;;;;;;17.47;12.50;;;-1.80;99.90;;;;;;4997422;28;20449;-76
2022/12/11 03:38:03;;;;;;;17.60;12.73;;;-1.80;99.90;;;;;;5006979;28;20877;-76
2022/12/11 03:40:35;;;;;;;18.07;12.90;;;-1.80;99.90;;;;;;5017052;28;20844;-74
2022/12/11 03:43:05;;;;;;;15.97;12.63;;;-1.80;99.90;;;;;;5008823;28;20465;-77
2022/12/11 03:45:38;;;;;;;16.97;12.77;;;-1.70;99.90;;;;;;4996967;28;20472;-76
2022/12/11 03:48:08;;;;;;;16.37;12.17;;;-1.80;99.90;;;;;;4996933;28;20445;-77
2022/12/11 03:50:37;;;;;;;15.90;12.33;;;-1.80;99.90;;;;;;4997106;28;20508;-75
2022/12/11 03:53:08;;;;;;;16.23;12.77;;;-1.70;99.90;;;;;;4997544;28;20469;-77
2022/12/11 03:55:39;;;;;;;18.47;14.30;;;-1.70;99.90;;;;;;4997040;28;20563;-75
2022/12/11 03:58:07;;;;;;;18.93;14.27;;;-1.80;99.90;;;;;;4999363;28;20870;-79
2022/12/11 04:00:37;;;;;;;18.40;13.73;;;-1.70;99.90;;;;;;4997690;28;20469;-76
2022/12/11 04:03:16;;;;;;;20.83;15.40;;;-1.80;99.90;;;;;;4996825;28;20535;-77
2022/12/11 04:05:47;;;;;;;19.67;14.67;;;-1.80;99.90;;;;;;4995578;28;20976;-76
2022/12/11 04:08:16;;;;;;;21.03;15.23;;;-1.80;99.90;;;;;;5012274;28;20533;-78
2022/12/11 04:10:45;;;;;;;19.07;14.33;;;-1.70;99.90;;;;;;5014389;28;20487;-77
2022/12/11 04:13:13;;;;;;;20.43;15.07;;;-1.80;99.90;;;;;;5014525;28;20456;-75
2022/12/11 04:15:42;;;;;;;17.60;13.20;;;-1.70;99.90;;;;;;4999705;28;20471;-77
2022/12/11 04:26:35;;;;;;;16.27;12.13;;;-1.90;99.90;;;;;;4959564;28;20469;-78
2022/12/11 04:29:04;;;;;;;16.97;12.70;;;-2.00;99.90;;;;;;4994779;28;20460;-79
2022/12/11 04:31:33;;;;;;;18.03;13.37;;;-2.00;99.90;;;;;;4994291;28;20947;-76
2022/12/11 04:34:01;;;;;;;17.30;13.07;;;-2.00;99.90;;;;;;4994217;28;20477;-78
2022/12/11 04:36:30;;;;;;;18.60;14.10;;;-2.00;99.90;;;;;;5003417;28;20452;-79
2022/12/11 04:38:58;;;;;;;20.03;15.27;;;-2.00;99.90;;;;;;5003704;28;20515;-77
2022/12/11 04:41:26;;;;;;;21.63;16.57;;;-1.90;99.90;;;;;;4998454;28;20570;-77
2022/12/11 04:43:54;;;;;;;20.53;16.53;;;-2.00;99.90;;;;;;5003694;28;20474;-78
2022/12/11 04:46:23;;;;;;;22.83;17.13;;;-2.00;99.90;;;;;;4994213;28;20446;-78
2022/12/11 04:48:53;;;;;;;20.60;16.90;;;-2.00;99.90;;;;;;4993404;28;20835;-77
2022/12/11 04:51:25;;;;;;;22.87;17.87;;;-2.00;99.90;;;;;;4994561;28;20469;-79
2022/12/11 04:53:54;;;;;;;22.43;17.37;;;-2.00;99.90;;;;;;4994162;28;20457;-78
2022/12/11 04:56:22;;;;;;;20.47;16.30;;;-2.00;99.90;;;;;;5003136;28;20475;-75
2022/12/11 04:58:50;;;;;;;21.93;17.33;;;-2.10;99.90;;;;;;4995173;28;20556;-79
2022/12/11 05:01:21;;;;;;;21.60;16.03;;;-2.00;99.90;;;;;;4994461;28;20457;-78
2022/12/11 05:03:49;;;;;;;20.03;16.20;;;-2.10;99.90;;;;;;4993418;28;20532;-78
2022/12/11 05:06:19;;;;;;;19.13;15.27;;;-2.10;99.90;;;;;;4993661;28;20457;-79
2022/12/11 05:08:47;;;;;;;20.13;15.67;;;-2.10;99.90;;;;;;4993730;28;20487;-76
2022/12/11 05:11:16;;;;;;;19.77;15.33;;;-2.10;99.90;;;;;;4993609;28;20496;-78
2022/12/11 05:13:45;;;;;;;19.40;15.07;;;-2.10;99.90;;;;;;4993469;28;20484;-77
2022/12/11 05:16:16;;;;;;;20.87;16.50;;;-2.00;99.90;;;;;;4994489;28;20495;-74
2022/12/11 05:18:50;;;;;;;20.43;15.20;;;-2.00;99.90;;;;;;4994170;28;20457;-75
2022/12/11 05:21:20;;;;;;;19.30;15.33;;;-2.00;99.90;;;;;;4993363;28;20460;-76
2022/12/11 05:23:48;;;;;;;19.50;15.60;;;-2.00;99.90;;;;;;4993174;28;20457;-78
2022/12/11 05:26:18;;;;;;;18.37;14.73;;;-2.00;99.90;;;;;;4993403;28;20548;-77
2022/12/11 05:28:47;;;;;;;17.17;13.90;;;-2.10;99.90;;;;;;4994002;28;20450;-74
2022/12/11 05:31:18;;;;;;;18.20;14.03;;;-2.10;99.90;;;;;;4993339;28;20925;-74
2022/12/11 05:33:48;;;;;;;17.47;13.97;;;-2.10;99.90;;;;;;4993203;28;20843;-74
2022/12/11 05:36:20;;;;;;;17.73;14.03;;;-2.20;99.90;;;;;;5011783;28;20830;-73
2022/12/11 05:38:49;;;;;;;19.10;14.63;;;-2.20;99.90;;;;;;5008891;28;20910;-75
2022/12/11 05:41:20;;;;;;;18.00;14.03;;;-2.20;99.90;;;;;;5013630;28;20453;-75
2022/12/11 05:43:48;;;;;;;19.00;14.73;;;-2.20;99.90;;;;;;5013216;28;20437;-75
2022/12/11 05:46:18;;;;;;;17.67;14.10;;;-2.20;99.90;;;;;;5013376;28;20457;-78
2022/12/11 05:48:49;;;;;;;20.00;16.07;;;-2.30;99.90;;;;;;4997196;28;20465;-75
2022/12/11 05:51:19;;;;;;;20.17;15.77;;;-2.30;99.90;;;;;;4994229;28;20491;-78
2022/12/11 05:53:49;;;;;;;20.43;15.73;;;-2.40;99.90;;;;;;4994115;28;20458;-76
2022/12/11 05:56:20;;;;;;;19.27;14.73;;;-2.40;99.90;;;;;;4993908;28;20445;-75
2022/12/11 05:58:48;;;;;;;18.97;15.27;;;-2.40;99.90;;;;;;4994807;28;20463;-79
2022/12/11 06:01:19;;;;;;;19.67;15.10;;;-2.40;99.90;;;;;;5013292;28;20467;-77
2022/12/11 06:03:48;;;;;;;20.83;15.37;;;-2.40;99.90;;;;;;5013020;28;20463;-78
2022/12/11 06:06:16;;;;;;;18.03;14.67;;;-2.40;99.90;;;;;;5013332;28;20469;-78
2022/12/11 06:08:46;;;;;;;18.90;14.63;;;-2.40;99.90;;;;;;5010918;28;20452;-77
2022/12/11 06:11:14;;;;;;;19.33;15.13;;;-2.60;99.90;;;;;;4994227;28;20457;-78
2022/12/11 06:13:49;;;;;;;18.80;14.83;;;-2.60;99.90;;;;;;4993759;28;20437;-79
2022/12/11 06:16:17;;;;;;;21.07;14.70;;;-2.60;99.90;;;;;;4993766;28;20810;-78
2022/12/11 06:18:46;;;;;;;18.63;14.83;;;-2.70;99.90;;;;;;5001092;28;20464;-78
2022/12/11 06:21:16;;;;;;;16.77;13.63;;;-2.70;99.90;;;;;;4998080;28;20474;-79
2022/12/11 06:23:47;;;;;;;17.87;14.27;;;-2.80;99.90;;;;;;4993665;28;20456;-77
2022/12/11 06:26:16;;;;;;;19.30;14.83;;;-2.80;99.90;;;;;;4993937;28;20903;-76
2022/12/11 06:28:45;;;;;;;19.47;15.10;;;-2.90;99.90;;;;;;4993995;28;20969;-79
2022/12/11 06:31:14;;;;;;;21.67;16.30;;;-2.90;99.90;;;;;;4994288;28;20458;-79
2022/12/11 06:33:43;;;;;;;19.63;14.80;;;-2.90;99.90;;;;;;5002567;28;20457;-76
2022/12/11 06:36:13;;;;;;;20.80;15.57;;;-2.80;99.90;;;;;;5013382;28;20448;-77
2022/12/11 06:38:42;;;;;;;21.13;15.87;;;-2.80;99.90;;;;;;4996851;28;20503;-77
2022/12/11 06:41:15;;;;;;;21.07;15.37;;;-2.80;99.90;;;;;;5013141;28;20457;-78
2022/12/11 06:43:44;;;;;;;20.30;15.53;;;-2.80;99.90;;;;;;5012613;28;20436;-79
2022/12/11 06:46:14;;;;;;;20.50;15.43;;;-2.80;99.90;;;;;;4997124;28;20469;-77
2022/12/11 06:48:43;;;;;;;23.07;15.83;;;-2.80;99.90;;;;;;5005526;28;20903;-77
2022/12/11 06:51:14;;;;;;;21.53;16.40;;;-2.80;99.90;;;;;;5005507;28;20453;-77
2022/12/11 06:53:43;;;;;;;22.10;16.90;;;-2.80;99.90;;;;;;5005670;28;21030;-78
2022/12/11 06:56:15;;;;;;;23.87;16.60;;;-2.80;99.90;;;;;;5003575;28;20479;-78
2022/12/11 06:58:43;;;;;;;23.20;17.17;;;-2.70;99.90;;;;;;5008301;28;20441;-77
2022/12/11 07:01:16;;;;;;;22.87;17.00;;;-2.60;99.90;;;;;;5008135;28;20450;-75
2022/12/11 07:03:45;;;;;;;20.93;16.80;;;-2.60;99.90;;;;;;5008912;28;20467;-78
2022/12/11 07:06:13;;;;;;;22.50;17.60;;;-2.60;99.90;;;;;;5007993;28;20449;-79
2022/12/11 07:08:42;;;;;;;23.33;16.77;;;-2.60;99.90;;;;;;5008227;28;20707;-77
2022/12/11 07:11:12;;;;;;;21.67;16.00;;;-2.60;99.90;;;;;;5008276;28;20449;-76
2022/12/11 07:13:43;;;;;;;22.00;16.37;;;-2.60;99.90;;;;;;5009010;28;20504;-77
2022/12/11 07:16:13;;;;;;;23.43;17.63;;;-2.50;99.90;;;;;;5006667;28;20525;-75
2022/12/11 07:18:43;;;;;;;25.00;18.70;;;-2.60;99.90;;;;;;5010587;28;20458;-79
2022/12/11 07:21:39;;;;;;;23.77;17.27;;;-2.50;99.90;;;;;;5008170;28;20449;-78
2022/12/11 07:24:08;;;;;;;24.00;17.17;;;-2.50;99.90;;;;;;5006354;28;20477;-76
2022/12/11 07:26:36;;;;;;;25.60;17.33;;;-2.50;99.90;;;;;;5010875;28;20452;-75
2022/12/11 07:29:06;;;;;;;22.20;17.03;;;-2.50;99.90;;;;;;5011868;28;20467;-77
2022/12/11 07:31:34;;;;;;;22.13;16.80;;;-2.40;99.90;;;;;;5010600;28;20564;-78
2022/12/11 07:34:05;;;;;;;23.40;17.53;;;-2.30;99.90;;;;;;5011503;28;20483;-76
2022/12/11 07:36:34;;;;;;;23.83;17.73;;;-2.30;99.90;;;;;;5013760;28;20436;-78
2022/12/11 07:39:03;;;;;;;23.97;18.07;;;-2.20;99.90;;;;;;5008617;28;20567;-79
2022/12/11 07:41:31;;;;;;;22.23;17.70;;;-2.20;99.90;;;;;;5008989;28;20537;-78
2022/12/11 07:44:00;;;;;;;22.83;17.67;;;-2.20;99.90;;;;;;5008605;28;20520;-79
2022/12/11 07:46:32;;;;;;;25.17;17.17;;;-2.10;99.90;;;;;;5009787;28;20464;-75
2022/12/11 07:49:01;;;;;;;21.23;16.50;;;-2.10;99.90;;;;;;5008855;28;20433;-79
2022/12/11 07:51:32;;;;;;;24.33;16.87;;;-2.10;99.90;;;;;;5005599;28;20903;-78
2022/12/11 07:54:02;;;;;;;23.20;17.47;;;-2.20;99.90;;;;;;5006805;28;20468;-77
2022/12/11 07:56:31;;;;;;;23.80;17.93;;;-2.10;99.90;;;;;;5003373;28;20559;-76
2022/12/11 07:59:00;;;;;;;21.63;16.93;;;-2.20;99.90;;;;;;5005342;28;20455;-75
2022/12/11 08:01:32;;;;;;;20.67;16.03;;;-2.10;99.90;;;;;;5020884;28;20457;-76
2022/12/11 08:04:01;;;;;;;23.70;16.93;;;-2.10;99.90;;;;;;5016521;28;20446;-77
2022/12/11 08:06:32;;;;;;;20.60;16.37;;;-2.00;99.90;;;;;;4998627;28;20515;-79
2022/12/11 08:09:01;;;;;;;21.37;16.63;;;-2.00;99.90;;;;;;4997340;28;20912;-76
2022/12/11 08:11:30;;;;;;;22.17;16.77;;;-2.00;99.90;;;;;;4996953;28;20466;-79
2022/12/11 08:13:59;;;;;;;21.20;16.63;;;-2.00;99.90;;;;;;4995941;28;20576;-76
2022/12/11 08:16:29;;;;;;;20.83;15.90;;;-1.90;99.90;;;;;;4996340;28;20465;-74
2022/12/11 08:19:00;;;;;;;19.67;16.00;;;-1.90;99.90;;;;;;4997104;28;20571;-77
2022/12/11 08:21:28;;;;;;;20.30;16.03;;;-1.90;99.90;;;;;;4998822;28;20445;-78
2022/12/11 08:23:57;;;;;;;19.97;16.20;;;-1.90;99.90;;;;;;5005818;28;20442;-75
2022/12/11 08:26:26;;;;;;;20.87;16.07;;;-1.80;99.90;;;;;;5005335;28;20444;-77
2022/12/11 08:28:55;;;;;;;20.80;16.10;;;-1.90;99.90;;;;;;5007015;28;20988;-77
2022/12/11 08:31:24;;;;;;;22.67;17.27;;;-1.80;99.90;;;;;;5012608;28;20809;-77
2022/12/11 08:33:56;;;;;;;23.47;17.53;;;-1.70;99.90;;;;;;5007646;28;20711;-74
2022/12/11 08:36:25;;;;;;;21.17;16.93;;;-1.70;99.90;;;;;;5006682;28;20523;-77
2022/12/11 08:38:55;;;;;;;22.50;16.90;;;-1.60;99.90;;;;;;5011454;28;21001;-74
2022/12/11 08:41:29;;;;;;;24.03;18.60;;;-1.60;99.90;;;;;;5011271;28;20449;-76
2022/12/11 08:44:00;;;;;;;23.20;17.80;;;-1.60;99.90;;;;;;5014951;28;20468;-74
2022/12/11 08:46:30;;;;;;;22.33;16.97;;;-1.60;99.90;;;;;;5013168;28;20453;-75
2022/12/11 08:49:00;;;;;;;24.47;19.23;;;-1.60;99.90;;;;;;5021722;28;20424;-75
2022/12/11 08:51:30;;;;;;;23.27;18.33;;;-1.50;99.90;;;;;;5019734;28;20522;-77
2022/12/11 08:54:00;;;;;;;22.20;17.67;;;-1.50;99.90;;;;;;4996307;28;21016;-76
2022/12/11 08:56:30;;;;;;;22.20;17.70;;;-1.50;99.90;;;;;;4996622;28;20453;-78
2022/12/11 08:59:00;;;;;;;23.03;17.80;;;-1.70;99.90;;;;;;4996160;28;20456;-77
2022/12/11 09:01:29;;;;;;;23.10;17.97;;;-1.60;99.90;;;;;;4995969;28;20468;-75
2022/12/11 09:04:00;;;;;;;22.37;17.37;;;-1.60;99.90;;;;;;4995607;28;20452;-78
2022/12/11 09:06:32;;;;;;;22.20;17.13;;;-1.60;99.90;;;;;;4998531;28;20456;-77
2022/12/11 09:09:01;;;;;;;24.20;17.57;;;-1.40;99.90;;;;;;5006299;28;20525;-77
2022/12/11 09:11:32;;;;;;;23.70;17.60;;;-1.40;99.90;;;;;;5014660;28;20500;-79
2022/12/11 09:14:02;;;;;;;21.87;17.47;;;-1.40;99.90;;;;;;5004659;28;20218;-78
2022/12/11 09:16:38;;;;;;;24.17;18.17;;;-1.30;99.90;;;;;;5005971;28;20489;-78
2022/12/11 09:19:11;;;;;;;21.23;17.23;;;-1.10;99.90;;;;;;5006404;28;20485;-78
2022/12/11 09:21:40;;;;;;;22.53;17.70;;;-1.00;99.90;;;;;;5006216;28;20466;-78
2022/12/11 09:24:09;;;;;;;23.27;17.63;;;-1.00;99.90;;;;;;5005367;28;20445;-77
2022/12/11 09:26:38;;;;;;;21.67;16.70;;;-0.90;99.90;;;;;;5005007;28;20511;-79
2022/12/11 09:29:07;;;;;;;21.93;16.83;;;-1.00;99.90;;;;;;5009710;28;20475;-78
2022/12/11 09:31:37;;;;;;;21.43;16.77;;;-1.10;99.90;;;;;;5003998;28;20446;-78
2022/12/11 09:34:08;;;;;;;22.17;17.27;;;-1.20;99.90;;;;;;5006477;28;20563;-77
2022/12/11 09:36:38;;;;;;;23.13;18.00;;;-1.20;99.90;;;;;;5003661;28;20281;-77
2022/12/11 09:39:08;;;;;;;22.20;18.33;;;-1.10;99.90;;;;;;5003498;28;20480;-78
2022/12/11 09:41:40;;;;;;;27.57;19.83;;;-1.20;99.90;;;;;;5006045;28;20457;-77
2022/12/11 09:44:33;;;;;;;23.10;18.80;;;-1.30;99.90;;;;;;5004264;28;20425;-77
2022/12/11 09:47:01;;;;;;;24.83;18.27;;;-1.20;99.90;;;;;;5009660;28;20463;-77
2022/12/11 09:49:41;;;;;;;22.87;17.57;;;-1.20;99.90;;;;;;5006152;28;20839;-78
2022/12/11 09:52:17;;;;;;;22.03;17.47;;;-1.00;99.90;;;;;;5003070;28;20426;-76
2022/12/11 09:54:49;;;;;;;23.83;19.10;;;-0.90;99.90;;;;;;5005574;28;20844;-76
2022/12/11 09:57:29;;;;;;;22.87;17.60;;;-0.70;99.90;;;;;;5003707;28;20465;-79
2022/12/11 10:00:10;;;;;;;21.47;16.63;;;-0.40;99.90;;;;;;5003836;28;20551;-79
2022/12/11 10:02:51;;;;;;;19.77;15.97;;;0.00;99.90;;;;;;5009703;28;20459;-77
2022/12/11 10:05:28;;;;;;;21.63;17.50;;;-0.10;99.90;;;;;;5019485;28;20692;-74
2022/12/11 10:08:03;;;;;;;20.57;16.13;;;-0.30;99.90;;;;;;5005516;28;20205;-75
2022/12/11 10:10:41;;;;;;;20.53;16.60;;;-0.40;99.90;;;;;;5005899;28;20206;-77
2022/12/11 10:13:21;;;;;;;22.63;17.27;;;-0.60;99.90;;;;;;5006425;28;20189;-75
2022/12/11 10:15:54;;;;;;;20.70;16.70;;;-0.60;99.90;;;;;;5006074;28;20464;-78
2022/12/11 10:18:25;;;;;;;21.37;17.63;;;-0.70;99.90;;;;;;5005850;28;20213;-77
2022/12/11 10:20:55;;;;;;;23.07;18.33;;;-0.70;99.90;;;;;;4999298;28;20214;-77
2022/12/11 10:23:34;;;;;;;22.20;17.50;;;-0.70;99.90;;;;;;5012129;28;20209;-79
2022/12/11 10:26:06;;;;;;;23.43;17.97;;;-0.80;99.90;;;;;;5007442;28;20260;-79
2022/12/11 10:28:38;;;;;;;21.77;17.93;;;-0.80;99.90;;;;;;5013505;28;20209;-76
2022/12/11 10:31:16;;;;;;;21.43;16.90;;;-0.70;99.90;;;;;;5010442;28;20215;-79
2022/12/11 10:33:55;;;;;;;24.47;19.40;;;-0.80;99.90;;;;;;5009563;28;20755;-74
2022/12/11 10:36:29;;;;;;;21.60;17.13;;;-0.90;99.90;;;;;;5003881;28;20468;-78
2022/12/11 10:38:58;;;;;;;20.90;16.63;;;-0.70;99.90;;;;;;5011053;28;20711;-75
2022/12/11 10:41:36;;;;;;;21.07;17.13;;;-0.60;99.90;;;;;;5021606;28;20432;-76
2022/12/11 10:44:17;;;;;;;19.80;16.53;;;-0.50;99.90;;;;;;5023782;28;20436;-75
2022/12/11 10:46:46;;;;;;;18.83;15.40;;;-0.50;99.90;;;;;;5008347;28;20263;-77
2022/12/11 10:49:24;;;;;;;20.87;16.57;;;-0.60;99.90;;;;;;5015034;28;20237;-78
2022/12/11 10:51:54;;;;;;;20.00;15.73;;;-0.40;99.90;;;;;;5017278;28;20213;-78
2022/12/11 10:54:32;;;;;;;23.50;15.47;;;-0.60;99.90;;;;;;5016678;28;20469;-77
2022/12/11 10:57:02;;;;;;;18.80;15.63;;;-0.40;99.90;;;;;;5010482;28;20243;-78
2022/12/11 10:59:37;;;;;;;19.93;16.10;;;-0.30;99.90;;;;;;5008121;28;20237;-78
2022/12/11 11:02:07;;;;;;;17.87;14.73;;;-0.10;99.90;;;;;;5013380;28;20197;-77
2022/12/11 11:04:38;;;;;;;16.90;13.80;;;-0.30;99.90;;;;;;5009848;28;20292;-78
2022/12/11 11:07:15;;;;;;;18.33;15.40;;;-0.30;99.90;;;;;;5017022;28;20641;-77
2022/12/11 11:09:44;;;;;;;20.07;15.33;;;-0.30;99.90;;;;;;5016585;28;20257;-74
2022/12/11 11:12:25;;;;;;;17.30;14.33;;;-0.30;99.90;;;;;;5014670;28;20217;-76
2022/12/11 11:15:01;;;;;;;17.63;14.90;;;-0.50;99.90;;;;;;5012945;28;20323;-78
2022/12/11 11:17:32;;;;;;;17.97;14.23;;;-0.60;99.90;;;;;;5017710;28;20209;-74
2022/12/11 11:20:14;;;;;;;19.43;15.10;;;-0.60;99.90;;;;;;5017335;28;20667;-74
2022/12/11 11:22:54;;;;;;;18.37;15.43;;;-0.40;99.90;;;;;;5008202;28;20221;-77
2022/12/11 11:25:25;;;;;;;17.00;13.67;;;-0.50;99.90;;;;;;4998214;28;20222;-75
2022/12/11 11:27:58;;;;;;;18.57;14.00;;;-0.50;99.90;;;;;;5016316;28;20259;-75
2022/12/11 11:30:29;;;;;;;19.60;15.73;;;-0.60;99.90;;;;;;5011453;28;20210;-77
2022/12/11 11:33:15;;;;;;;27.27;18.77;;;-0.60;99.90;;;;;;4997641;28;20233;-80
2022/12/11 11:35:52;;;;;;;28.27;21.00;;;-0.80;99.90;;;;;;4998514;28;20555;-74
2022/12/11 11:38:27;;;;;;;20.20;16.53;;;-0.90;99.90;;;;;;5003539;28;20372;-79
2022/12/11 11:41:04;;;;;;;18.40;15.13;;;-0.80;99.90;;;;;;5002321;28;20224;-75
2022/12/11 11:43:45;;;;;;;17.23;14.40;;;-0.90;99.90;;;;;;4997596;28;20469;-76
2022/12/11 11:46:18;;;;;;;18.47;14.53;;;-0.90;99.90;;;;;;4998131;28;20278;-75
2022/12/11 11:48:56;;;;;;;19.90;15.37;;;-0.90;99.90;;;;;;4997941;28;20210;-76
2022/12/11 11:51:30;;;;;;;18.17;14.47;;;-0.90;99.90;;;;;;4998382;28;20895;-74
2022/12/11 11:54:08;;;;;;;19.20;15.00;;;-1.00;99.90;;;;;;4997683;28;20556;-74
2022/12/11 11:56:37;;;;;;;19.93;15.40;;;-0.90;99.90;;;;;;4998919;28;20191;-73
2022/12/11 11:59:13;;;;;;;19.33;14.20;;;-0.90;99.90;;;;;;5011717;28;20473;-75
2022/12/11 12:01:43;;;;;;;19.70;14.40;;;-0.70;99.90;;;;;;5005489;28;20264;-74
2022/12/11 12:04:32;;;;;;;19.60;15.03;;;-0.70;99.90;;;;;;4997422;28;20206;-76
2022/12/11 12:07:16;;;;;;;17.93;14.43;;;-0.60;99.90;;;;;;5001964;28;20194;-74
2022/12/11 12:09:56;;;;;;;16.23;13.53;;;-0.60;99.90;;;;;;5006651;28;20500;-75
2022/12/11 12:12:35;;;;;;;17.00;13.07;;;-0.50;99.90;;;;;;5007195;28;20233;-74
2022/12/11 12:15:18;;;;;;;16.70;12.47;;;-0.50;99.90;;;;;;5007927;28;20516;-76
2022/12/11 12:17:52;;;;;;;16.33;12.67;;;-0.40;99.90;;;;;;5017114;28;20299;-75
2022/12/11 12:20:33;;;;;;;15.53;12.63;;;-0.70;99.90;;;;;;5017247;28;20185;-74
2022/12/11 12:23:20;;;;;;;18.03;12.97;;;-0.80;99.90;;;;;;5005568;28;20284;-74
2022/12/11 12:25:56;;;;;;;17.27;13.47;;;-0.70;99.90;;;;;;5009664;28;20213;-75
2022/12/11 12:28:35;;;;;;;18.07;14.30;;;-0.70;99.90;;;;;;5008776;28;20469;-73
2022/12/11 12:31:14;;;;;;;15.77;13.30;;;-0.70;99.90;;;;;;5013775;28;20671;-74
2022/12/11 12:33:53;;;;;;;18.63;13.53;;;-0.70;99.90;;;;;;5017086;28;20663;-75
2022/12/11 12:36:29;;;;;;;16.03;13.63;;;-0.70;99.90;;;;;;5003214;28;20986;-76
2022/12/11 12:39:04;;;;;;;17.07;13.50;;;-0.60;99.90;;;;;;5010316;28;20494;-76
2022/12/11 12:41:42;;;;;;;15.63;13.50;;;-0.60;99.90;;;;;;5004280;28;20222;-75
2022/12/11 12:44:15;;;;;;;14.47;12.60;;;-0.70;99.90;;;;;;5020537;28;20594;-75
2022/12/11 12:47:00;;;;;;;16.53;12.67;;;-0.70;99.90;;;;;;5011342;28;20463;-73
2022/12/11 12:49:39;;;;;;;15.20;12.47;;;-0.60;99.90;;;;;;5015220;28;20971;-75
2022/12/11 12:52:13;;;;;;;14.43;12.23;;;-0.30;99.90;;;;;;5008012;28;20195;-76
2022/12/11 12:57:33;;;;;;;15.50;12.37;;;-0.20;99.90;;;;;;5007653;28;20624;-75
2022/12/11 13:00:04;;;;;;;16.10;11.87;;;-0.30;99.90;;;;;;5016359;28;20213;-74
2022/12/11 13:02:52;;;;;;;14.60;11.70;;;-0.30;99.90;;;;;;5015205;28;20205;-77